Time;durP1;ratioP1;P1;durP2;ratioP2;P2;SDS_P1;SDS_P2;PMS_P1;PMS_P2;Temp;Humidity;BMP_temperature;BMP_pressure;BME280_temperature;BME280_humidity;BME280_pressure;Samples;Min_cycle;Max_cycle;Signal;HPM_P1;HPM_P2
2022/01/06 00:02:01;;;;;;;6.33;3.50;;;;;;;5.05;86.83;97843.28;4848588;29;20653;-82
2022/01/06 00:04:29;;;;;;;8.00;3.70;;;;;;;5.04;87.62;97849.38;4843008;29;20646;-82
2022/01/06 00:06:59;;;;;;;10.30;3.67;;;;;;;5.06;87.11;97859.63;4844682;29;20682;-82
2022/01/06 00:09:27;;;;;;;10.23;3.27;;;;;;;5.05;87.44;97863.97;4846258;29;21234;-82
2022/01/06 00:11:55;;;;;;;10.40;3.90;;;;;;;5.07;87.44;97853.56;4846122;29;20647;-81
2022/01/06 00:14:37;;;;;;;6.93;3.20;;;;;;;5.08;87.34;97856.03;4845805;29;20662;-82
2022/01/06 00:17:20;;;;;;;15.97;3.93;;;;;;;5.11;88.14;97844.72;4829127;29;21323;-82
2022/01/06 00:25:21;;;;;;;12.17;4.30;;;;;;;5.13;88.21;97863.56;4846929;29;20664;-81
2022/01/06 00:27:49;;;;;;;12.50;4.43;;;;;;;5.13;88.01;97861.81;4847291;29;20636;-82
2022/01/06 00:30:17;;;;;;;7.83;3.97;;;;;;;5.14;88.21;97861.75;4846345;29;20749;-82
2022/01/06 00:32:45;;;;;;;10.20;3.50;;;;;;;5.16;88.48;97861.66;4846500;29;20641;-81
2022/01/06 00:35:54;;;;;;;6.23;3.23;;;;;;;5.16;87.62;97867.66;4857059;29;20675;-81
2022/01/06 00:38:26;;;;;;;7.80;3.87;;;;;;;5.17;88.39;97864.19;4844025;29;20747;-82
2022/01/06 00:40:54;;;;;;;10.13;3.57;;;;;;;5.19;88.36;97858.94;4852087;29;20698;-81
2022/01/06 00:43:22;;;;;;;11.13;3.70;;;;;;;5.19;87.66;97857.16;4832100;29;20782;-81
2022/01/06 00:45:51;;;;;;;10.80;3.87;;;;;;;5.18;87.93;97855.50;4848391;29;20694;-82
2022/01/06 00:48:19;;;;;;;7.43;3.57;;;;;;;5.02;87.97;97861.53;4849709;29;20665;-81
2022/01/06 00:50:48;;;;;;;9.30;3.60;;;;;;;4.99;87.53;97860.84;4852473;29;20730;-81
2022/01/06 00:53:16;;;;;;;9.63;3.83;;;;;;;5.01;87.46;97857.28;4865355;29;20660;-82
2022/01/06 00:56:12;;;;;;;6.13;3.30;;;;;;;5.07;88.11;97863.91;4851279;29;20676;-81
2022/01/06 00:58:43;;;;;;;10.37;4.10;;;;;;;5.12;88.68;97860.13;4849330;29;21288;-82
2022/01/06 01:01:11;;;;;;;7.90;3.70;;;;;;;5.14;88.14;97868.66;4852173;29;20671;-81
2022/01/06 01:03:39;;;;;;;6.90;3.60;;;;;;;5.18;87.83;97877.94;4868306;29;21022;-82
2022/01/06 01:06:07;;;;;;;6.33;3.40;;;;;;;5.19;88.19;97872.69;4855140;29;20698;-82
2022/01/06 01:08:38;;;;;;;16.30;4.43;;;;;;;5.18;89.00;97871.00;4855500;29;20644;-82
2022/01/06 01:11:07;;;;;;;10.50;3.70;;;;;;;5.23;87.78;97879.38;4854998;29;20641;-81
2022/01/06 01:13:53;;;;;;;8.43;3.83;;;;;;;5.21;88.29;97878.59;4852109;29;21216;-81
2022/01/06 01:16:25;;;;;;;6.73;3.93;;;;;;;5.23;88.35;97883.69;4849407;29;21114;-82
2022/01/06 01:18:56;;;;;;;8.27;3.60;;;;;;;5.26;89.11;97881.81;4852938;29;21127;-81
2022/01/06 01:21:27;;;;;;;8.30;3.77;;;;;;;5.28;88.36;97887.72;4838695;29;20634;-82
2022/01/06 01:23:55;;;;;;;7.70;3.90;;;;;;;5.28;89.18;97892.88;4850050;29;20654;-81
2022/01/06 01:26:24;;;;;;;8.90;3.67;;;;;;;5.32;88.94;97893.56;4849348;29;21039;-82
2022/01/06 01:28:54;;;;;;;7.63;3.90;;;;;;;5.36;89.20;97892.50;4866356;29;20858;-82
2022/01/06 01:31:27;;;;;;;8.00;3.53;;;;;;;5.36;89.31;97897.66;4849559;29;20644;-82
2022/01/06 01:33:59;;;;;;;9.40;3.67;;;;;;;5.37;88.91;97899.34;4869053;29;21240;-82
2022/01/06 01:36:27;;;;;;;8.90;4.00;;;;;;;5.38;88.86;97899.28;4870151;29;21220;-81
2022/01/06 01:38:56;;;;;;;8.57;3.83;;;;;;;5.39;89.73;97902.69;4854505;29;21021;-82
2022/01/06 01:41:24;;;;;;;7.87;3.80;;;;;;;5.41;89.07;97899.13;4849936;29;20644;-82
2022/01/06 01:43:55;;;;;;;10.87;4.23;;;;;;;5.43;88.95;97901.63;4852961;29;20660;-82
2022/01/06 01:46:28;;;;;;;11.63;4.90;;;;;;;5.43;89.50;97902.44;4847668;29;20715;-81
2022/01/06 01:49:15;;;;;;;10.93;3.57;;;;;;;5.44;89.26;97909.31;4852224;29;20770;-82
2022/01/06 01:51:44;;;;;;;11.57;4.27;;;;;;;5.45;88.99;97908.38;4851639;29;20653;-81
2022/01/06 01:54:13;;;;;;;9.70;4.10;;;;;;;5.47;88.48;97910.88;4851228;29;21200;-82
2022/01/06 01:56:41;;;;;;;11.93;4.23;;;;;;;5.47;88.60;97914.28;4833536;29;20684;-82
2022/01/06 01:59:11;;;;;;;7.93;4.07;;;;;;;5.47;88.98;97919.47;4851523;29;20659;-81
2022/01/06 02:01:39;;;;;;;7.87;4.30;;;;;;;5.46;89.16;97915.22;4834285;29;21469;-82
2022/01/06 02:04:07;;;;;;;11.23;4.30;;;;;;;5.47;89.25;97924.63;4853534;29;21044;-82
2022/01/06 02:06:36;;;;;;;7.27;3.63;;;;;;;5.48;89.42;97921.16;4833379;29;20666;-81
2022/01/06 02:09:04;;;;;;;9.93;4.40;;;;;;;5.48;89.19;97918.56;4854260;29;21011;-82
2022/01/06 02:11:32;;;;;;;13.60;4.03;;;;;;;5.42;88.88;97921.44;4850846;29;20656;-81
2022/01/06 02:14:04;;;;;;;9.47;4.13;;;;;;;5.42;89.04;97926.63;4836128;29;20646;-81
2022/01/06 02:16:33;;;;;;;9.97;4.10;;;;;;;5.43;89.13;97928.31;4864485;29;20662;-82
2022/01/06 02:19:02;;;;;;;10.53;4.80;;;;;;;5.43;89.61;97930.91;4848735;29;21196;-82
2022/01/06 02:21:31;;;;;;;8.57;4.20;;;;;;;5.42;88.84;97926.63;4852278;29;21234;-81
2022/01/06 02:23:59;;;;;;;9.83;4.10;;;;;;;5.43;88.75;97938.66;4849771;29;20641;-82
2022/01/06 02:26:28;;;;;;;13.60;4.40;;;;;;;5.43;89.30;97932.66;4832751;29;20648;-82
2022/01/06 02:28:56;;;;;;;5.97;3.63;;;;;;;5.44;89.37;97931.72;4836814;29;21154;-81
2022/01/06 02:31:24;;;;;;;10.40;4.60;;;;;;;5.40;88.47;97928.47;4849799;29;20665;-82
2022/01/06 02:33:52;;;;;;;7.37;3.67;;;;;;;5.43;88.52;97938.66;4844983;29;20699;-81
2022/01/06 02:36:20;;;;;;;9.07;3.70;;;;;;;5.45;88.29;97941.97;4863385;29;20694;-82
2022/01/06 02:38:50;;;;;;;7.93;4.20;;;;;;;5.49;88.41;97938.34;4848404;29;20651;-81
2022/01/06 02:41:18;;;;;;;8.47;4.37;;;;;;;5.50;88.57;97939.16;4849074;29;20641;-81
2022/01/06 02:43:46;;;;;;;5.87;4.03;;;;;;;5.52;89.02;97937.31;4847506;29;20649;-82
2022/01/06 02:46:14;;;;;;;9.10;4.03;;;;;;;5.54;88.39;97936.34;4847876;29;21460;-81
2022/01/06 02:48:42;;;;;;;7.40;3.77;;;;;;;5.56;89.17;97934.50;4867009;29;20651;-81
2022/01/06 02:51:11;;;;;;;12.83;4.83;;;;;;;5.58;88.49;97932.69;4848319;29;20712;-82
2022/01/06 02:53:39;;;;;;;10.97;3.70;;;;;;;5.59;88.91;97939.53;4832003;29;20645;-81
2022/01/06 02:56:08;;;;;;;14.20;4.30;;;;;;;5.60;88.09;97948.97;4862453;29;21217;-81
2022/01/06 02:58:41;;;;;;;7.83;5.07;;;;;;;5.62;88.52;97947.13;4849189;29;20652;-81
2022/01/06 03:01:10;;;;;;;6.43;3.77;;;;;;;5.64;88.40;97946.16;4834006;29;21206;-81
2022/01/06 03:03:38;;;;;;;9.80;4.10;;;;;;;5.65;87.90;97945.25;4835663;29;20630;-81
2022/01/06 03:06:06;;;;;;;9.10;3.97;;;;;;;5.68;88.27;97950.25;4850295;29;20981;-81
2022/01/06 03:08:37;;;;;;;7.10;3.90;;;;;;;5.70;88.09;97952.78;4848556;29;20662;-81
2022/01/06 03:11:06;;;;;;;8.70;3.73;;;;;;;5.72;88.46;97961.28;4851295;29;20638;-81
2022/01/06 03:13:36;;;;;;;11.57;3.90;;;;;;;5.72;88.39;97967.28;4863705;29;20661;-81
2022/01/06 03:16:05;;;;;;;11.20;4.50;;;;;;;5.73;88.49;97963.78;4866365;29;20681;-82
2022/01/06 03:18:33;;;;;;;9.97;3.30;;;;;;;5.72;87.94;97969.03;4849588;29;20645;-81
2022/01/06 03:21:01;;;;;;;8.23;3.83;;;;;;;5.68;87.95;97968.38;4848993;29;20656;-81
2022/01/06 03:23:29;;;;;;;9.00;3.73;;;;;;;5.67;87.75;97974.44;4848050;29;20659;-81
2022/01/06 03:25:57;;;;;;;8.83;4.53;;;;;;;5.67;88.37;97971.03;4849211;29;20645;-81
2022/01/06 03:28:25;;;;;;;9.93;4.07;;;;;;;5.67;88.10;97973.63;4846929;29;20641;-81
2022/01/06 03:30:54;;;;;;;9.87;3.67;;;;;;;5.65;87.96;97972.84;4851542;29;20643;-82
2022/01/06 03:33:23;;;;;;;8.60;3.97;;;;;;;5.63;88.80;97977.25;4855721;29;20730;-81
2022/01/06 03:35:51;;;;;;;8.70;3.80;;;;;;;5.62;88.89;97971.25;4847758;29;20642;-81
2022/01/06 03:38:19;;;;;;;7.40;3.70;;;;;;;5.60;88.79;97978.25;4832281;29;20648;-81
2022/01/06 03:40:47;;;;;;;7.17;3.70;;;;;;;5.60;88.78;97985.19;4852485;29;21200;-81
2022/01/06 03:43:16;;;;;;;13.33;4.33;;;;;;;5.58;88.41;97989.59;4847828;29;20647;-81
2022/01/06 03:45:44;;;;;;;8.80;4.20;;;;;;;5.56;88.67;98000.91;4849588;29;20650;-81
2022/01/06 03:48:14;;;;;;;13.57;3.80;;;;;;;5.54;88.26;97993.25;4835857;29;21062;-81
2022/01/06 03:50:42;;;;;;;9.90;3.63;;;;;;;5.55;88.65;97997.50;4847887;29;20637;-81
2022/01/06 03:53:12;;;;;;;8.20;4.40;;;;;;;5.55;89.19;97994.06;4847526;29;20646;-81
2022/01/06 03:55:40;;;;;;;10.90;4.23;;;;;;;5.55;89.29;98005.28;4864885;29;20649;-81
2022/01/06 03:58:11;;;;;;;13.23;4.27;;;;;;;5.54;89.22;98011.34;4831813;29;20779;-81
2022/01/06 04:00:39;;;;;;;9.57;4.10;;;;;;;5.49;89.24;98007.31;4862812;29;20662;-82
2022/01/06 04:03:07;;;;;;;6.50;4.07;;;;;;;5.50;89.26;98008.97;4846808;29;20705;-81
2022/01/06 04:05:37;;;;;;;10.27;4.37;;;;;;;5.50;89.25;98014.97;4847674;29;21202;-81
2022/01/06 04:08:05;;;;;;;6.23;3.53;;;;;;;5.50;89.86;98017.56;4867359;29;21338;-81
2022/01/06 04:10:33;;;;;;;8.27;3.70;;;;;;;5.51;89.62;98008.91;4844917;29;20658;-81
2022/01/06 04:13:02;;;;;;;8.70;3.80;;;;;;;5.50;89.29;98020.16;4849938;29;20639;-82
2022/01/06 04:15:30;;;;;;;7.83;4.53;;;;;;;5.47;89.21;98012.53;4845805;29;20659;-81
2022/01/06 04:17:58;;;;;;;7.67;3.90;;;;;;;5.49;89.81;98013.34;4849049;29;20695;-81
2022/01/06 04:20:26;;;;;;;8.60;4.00;;;;;;;5.49;89.20;98015.91;4848456;29;20657;-81
2022/01/06 04:22:55;;;;;;;8.30;4.53;;;;;;;5.44;88.80;98014.47;4848120;29;21182;-81
2022/01/06 04:25:23;;;;;;;9.23;4.90;;;;;;;5.40;89.73;98013.78;4853757;29;20704;-81
2022/01/06 04:27:51;;;;;;;10.70;5.47;;;;;;;5.39;89.62;98014.69;4850117;29;20962;-81
2022/01/06 04:30:20;;;;;;;10.57;3.93;;;;;;;5.38;90.41;98014.75;4850206;29;21243;-82
2022/01/06 04:32:48;;;;;;;12.37;4.53;;;;;;;5.40;90.41;98020.72;4831121;29;20734;-81
2022/01/06 04:35:16;;;;;;;9.03;4.23;;;;;;;5.41;90.05;98017.19;4852916;29;20651;-81
2022/01/06 04:37:44;;;;;;;9.47;3.73;;;;;;;5.42;90.78;98017.13;4866599;29;20661;-81
2022/01/06 04:40:14;;;;;;;10.20;4.40;;;;;;;5.42;90.49;98019.72;4840203;29;20649;-81
2022/01/06 04:42:42;;;;;;;8.60;4.03;;;;;;;5.44;89.93;98017.91;4853832;29;20637;-81
2022/01/06 04:45:10;;;;;;;6.93;3.87;;;;;;;5.37;89.97;98026.03;4866960;29;21097;-82
2022/01/06 04:47:38;;;;;;;8.27;4.50;;;;;;;5.38;90.68;98022.50;4852980;29;20744;-81
2022/01/06 04:50:07;;;;;;;12.57;5.00;;;;;;;5.40;89.94;98020.72;4858820;29;20645;-82
2022/01/06 04:52:35;;;;;;;9.80;4.77;;;;;;;5.40;90.38;98029.28;4852980;29;20647;-82
2022/01/06 04:55:04;;;;;;;9.37;3.80;;;;;;;5.39;89.71;98045.72;4867313;29;20721;-82
2022/01/06 04:57:33;;;;;;;11.63;4.63;;;;;;;5.38;90.48;98054.41;4849962;29;21217;-81
2022/01/06 05:00:02;;;;;;;8.70;4.60;;;;;;;5.38;90.79;98064.75;4855612;29;20645;-81
2022/01/06 05:02:30;;;;;;;8.57;4.13;;;;;;;5.40;89.95;98057.72;4850022;29;20975;-82
2022/01/06 05:04:58;;;;;;;7.43;4.00;;;;;;;5.41;90.42;98056.84;4847685;29;20646;-82
2022/01/06 05:07:26;;;;;;;7.83;4.87;;;;;;;5.41;91.13;98062.00;4865525;29;20680;-82
2022/01/06 05:09:55;;;;;;;8.07;4.90;;;;;;;5.44;90.82;98073.94;4852506;29;21188;-82
2022/01/06 05:12:23;;;;;;;9.03;4.90;;;;;;;5.43;90.80;98067.94;4852771;29;21207;-82
2022/01/06 05:14:52;;;;;;;7.73;4.23;;;;;;;5.44;90.15;98067.03;4851580;29;20649;-81
2022/01/06 05:17:20;;;;;;;7.83;4.80;;;;;;;5.46;90.61;98075.53;4853708;29;21424;-82
2022/01/06 05:19:48;;;;;;;7.30;4.57;;;;;;;5.47;90.39;98072.03;4853130;29;20699;-81
2022/01/06 05:22:17;;;;;;;7.30;4.53;;;;;;;5.49;90.60;98072.81;4866332;29;20649;-81
2022/01/06 05:24:45;;;;;;;8.90;3.97;;;;;;;5.50;90.32;98077.03;4852906;29;20639;-81
2022/01/06 05:27:13;;;;;;;8.10;4.10;;;;;;;5.52;90.68;98076.97;4848580;29;20645;-81
2022/01/06 05:29:41;;;;;;;7.47;4.20;;;;;;;5.51;90.74;98081.31;4851712;29;20633;-81
2022/01/06 05:32:11;;;;;;;8.30;4.47;;;;;;;5.51;90.79;98068.38;4851669;29;20757;-81
2022/01/06 05:34:39;;;;;;;12.37;4.40;;;;;;;5.52;90.06;98066.63;4851740;29;20634;-82
2022/01/06 05:37:08;;;;;;;9.30;4.87;;;;;;;5.48;90.54;98078.88;4848851;29;20655;-82
2022/01/06 05:39:36;;;;;;;7.13;4.00;;;;;;;5.45;90.63;98089.38;4868158;29;21192;-81
2022/01/06 05:42:05;;;;;;;9.93;4.03;;;;;;;5.48;90.34;98078.88;4850935;29;20650;-81
2022/01/06 05:44:34;;;;;;;9.90;4.07;;;;;;;5.48;90.60;98090.97;4835145;29;20673;-81
2022/01/06 05:47:03;;;;;;;12.60;4.53;;;;;;;5.49;90.39;98090.91;4835462;29;20652;-82
2022/01/06 05:49:33;;;;;;;7.10;4.30;;;;;;;5.50;90.23;98097.72;4853591;29;20660;-81
2022/01/06 05:52:01;;;;;;;10.20;4.73;;;;;;;5.52;90.43;98093.34;4852298;29;21006;-82
2022/01/06 05:54:32;;;;;;;10.03;4.93;;;;;;;5.51;90.05;98099.41;4848282;29;21877;-82
2022/01/06 05:57:01;;;;;;;8.33;4.93;;;;;;;5.53;90.18;98096.75;4853542;29;20741;-82
2022/01/06 05:59:31;;;;;;;10.27;4.50;;;;;;;5.51;90.61;98098.59;4853344;29;20678;-82
2022/01/06 06:02:00;;;;;;;9.60;5.33;;;;;;;5.47;90.28;98095.28;4849959;29;20649;-81
2022/01/06 06:04:29;;;;;;;10.30;4.60;;;;;;;5.49;90.51;98097.81;4852978;29;21099;-82
2022/01/06 06:06:58;;;;;;;8.23;4.10;;;;;;;5.48;90.63;98102.16;4854749;29;20665;-82
2022/01/06 06:09:26;;;;;;;13.73;5.13;;;;;;;5.49;90.88;98114.19;4849921;29;20651;-81
2022/01/06 06:11:54;;;;;;;10.13;4.73;;;;;;;5.51;90.66;98120.09;4866506;29;20644;-81
2022/01/06 06:14:22;;;;;;;11.10;4.83;;;;;;;5.45;90.30;98122.16;4854065;29;20647;-81
2022/01/06 06:16:51;;;;;;;6.53;3.90;;;;;;;5.38;89.86;98124.19;4849294;29;20665;-81
2022/01/06 06:19:19;;;;;;;9.57;4.23;;;;;;;5.29;90.16;98131.53;4848897;29;21026;-82
2022/01/06 06:21:49;;;;;;;7.63;4.50;;;;;;;5.20;89.61;98127.66;4853228;29;20679;-82
2022/01/06 06:24:20;;;;;;;6.97;4.53;;;;;;;5.13;89.15;98129.72;4850233;29;20651;-81
2022/01/06 06:26:49;;;;;;;7.90;4.17;;;;;;;5.07;90.25;98135.22;4853169;29;20672;-82
2022/01/06 06:29:18;;;;;;;12.50;5.67;;;;;;;5.00;90.14;98144.97;4854078;29;20647;-82
2022/01/06 06:31:46;;;;;;;7.97;5.30;;;;;;;4.97;89.51;98146.88;4849619;29;20644;-82
2022/01/06 06:34:14;;;;;;;7.30;5.00;;;;;;;4.93;90.29;98130.66;4850149;29;20693;-82
2022/01/06 06:36:42;;;;;;;7.47;5.53;;;;;;;4.95;90.78;98136.59;4854581;29;20649;-82
2022/01/06 06:39:11;;;;;;;9.73;4.83;;;;;;;4.94;89.38;98150.41;4850671;29;21005;-81
2022/01/06 06:41:40;;;;;;;5.80;4.20;;;;;;;4.87;90.51;98149.03;4864136;29;20642;-82
2022/01/06 06:44:08;;;;;;;7.33;3.53;;;;;;;4.86;90.51;98147.34;4850624;29;20645;-82
2022/01/06 06:46:37;;;;;;;11.73;3.23;;;;;;;4.85;91.68;98150.00;4854120;29;21071;-82
2022/01/06 06:49:05;;;;;;;6.90;3.60;;;;;;;4.81;90.29;98151.03;4864314;29;20645;-81
2022/01/06 06:51:33;;;;;;;7.97;3.20;;;;;;;4.75;91.05;98153.88;4852852;29;20655;-82
2022/01/06 06:54:01;;;;;;;6.03;3.67;;;;;;;4.77;91.55;98167.59;4848935;29;20649;-81
2022/01/06 06:56:29;;;;;;;5.17;3.17;;;;;;;4.78;91.67;98161.50;4851598;29;20646;-82
2022/01/06 06:58:59;;;;;;;5.00;3.20;;;;;;;4.79;91.01;98165.75;4848912;29;20654;-82
2022/01/06 07:01:27;;;;;;;4.03;2.80;;;;;;;4.78;91.09;98170.09;4852072;29;20634;-82
2022/01/06 07:03:55;;;;;;;7.60;3.57;;;;;;;4.78;91.00;98170.09;4848550;29;21237;-82
2022/01/06 07:06:23;;;;;;;6.97;3.80;;;;;;;4.76;91.83;98171.06;4849392;29;20673;-82
2022/01/06 07:08:51;;;;;;;7.00;3.17;;;;;;;4.76;92.03;98178.81;4849871;29;21009;-82
2022/01/06 07:11:19;;;;;;;4.67;2.93;;;;;;;4.75;91.20;98178.00;4853045;29;20645;-82
2022/01/06 07:13:47;;;;;;;7.63;3.30;;;;;;;4.73;91.71;98181.53;4833988;29;21047;-82
2022/01/06 07:16:17;;;;;;;12.73;9.10;;;;;;;4.75;92.16;98184.88;4850695;29;20741;-82
2022/01/06 07:18:45;;;;;;;8.33;5.07;;;;;;;4.76;91.01;98183.97;4851483;29;20691;-82
2022/01/06 07:21:13;;;;;;;6.93;4.23;;;;;;;4.81;90.96;98188.06;4851568;29;20660;-83
2022/01/06 07:23:42;;;;;;;6.40;3.80;;;;;;;4.84;91.62;98187.06;4848800;29;20687;-82
2022/01/06 07:26:10;;;;;;;8.67;4.07;;;;;;;4.85;91.05;98196.50;4847871;29;21177;-82
2022/01/06 07:28:38;;;;;;;7.47;4.40;;;;;;;4.84;90.89;98194.81;4848657;29;20650;-82
2022/01/06 07:31:06;;;;;;;6.87;4.30;;;;;;;4.81;90.70;98197.53;4852569;29;21345;-81
2022/01/06 07:33:36;;;;;;;10.10;4.43;;;;;;;4.83;91.10;98200.91;4853876;29;20639;-81
2022/01/06 07:36:04;;;;;;;7.77;4.20;;;;;;;4.82;91.68;98206.97;4849877;29;21233;-82
2022/01/06 07:38:32;;;;;;;9.83;4.40;;;;;;;4.78;92.17;98213.16;4849963;29;20668;-82
2022/01/06 07:41:00;;;;;;;6.57;4.13;;;;;;;4.78;91.81;98208.84;4851567;29;20659;-81
2022/01/06 07:43:29;;;;;;;7.67;4.77;;;;;;;4.82;91.53;98217.28;4850669;29;20638;-81
2022/01/06 07:45:57;;;;;;;14.33;5.90;;;;;;;4.81;91.42;98215.59;4849147;29;21093;-81
2022/01/06 07:48:37;;;;;;;8.90;6.10;;;;;;;4.82;92.85;98223.28;4848989;29;20656;-81
2022/01/06 07:51:06;;;;;;;8.97;5.40;;;;;;;4.85;92.49;98232.66;4864799;29;20634;-82
2022/01/06 07:53:34;;;;;;;6.00;4.37;;;;;;;4.88;92.94;98227.34;4850531;29;20674;-81
2022/01/06 07:56:03;;;;;;;10.97;5.67;;;;;;;4.94;92.86;98233.09;4861263;29;20637;-82
2022/01/06 07:58:31;;;;;;;32.00;19.20;;;;;;;4.98;91.98;98238.97;4846013;29;20653;-82
2022/01/06 08:01:00;;;;;;;14.80;7.20;;;;;;;4.94;92.96;98243.41;4853521;29;20737;-82
2022/01/06 08:03:29;;;;;;;14.23;8.50;;;;;;;4.99;92.77;98253.56;4851092;29;20695;-81
2022/01/06 08:05:57;;;;;;;16.80;9.67;;;;;;;5.05;92.08;98250.69;4866762;29;20677;-82
2022/01/06 08:08:26;;;;;;;10.80;8.27;;;;;;;5.10;92.85;98259.94;4866687;29;20701;-81
2022/01/06 08:10:55;;;;;;;12.17;6.83;;;;;;;5.16;92.43;98259.66;4837078;29;21001;-81
2022/01/06 08:13:23;;;;;;;9.73;6.67;;;;;;;5.19;93.31;98267.28;4851833;29;20650;-82
2022/01/06 08:15:51;;;;;;;11.80;5.93;;;;;;;5.21;93.13;98266.28;4850973;29;20650;-81
2022/01/06 08:18:19;;;;;;;8.53;5.23;;;;;;;5.27;92.72;98268.59;4849803;29;20642;-82
2022/01/06 08:20:47;;;;;;;12.40;7.00;;;;;;;5.33;92.91;98276.09;4853219;29;20658;-82
2022/01/06 08:23:15;;;;;;;9.87;5.57;;;;;;;5.37;92.86;98277.66;4847594;29;21262;-82
2022/01/06 08:25:46;;;;;;;8.67;5.10;;;;;;;5.42;93.12;98272.25;4866851;29;20651;-82
2022/01/06 08:28:14;;;;;;;11.20;5.90;;;;;;;5.44;92.56;98266.13;4853889;29;20646;-81
2022/01/06 08:30:43;;;;;;;11.87;5.77;;;;;;;5.48;92.84;98272.81;4838961;29;20650;-82
2022/01/06 08:33:11;;;;;;;13.17;5.90;;;;;;;5.50;92.54;98268.41;4852616;29;20709;-81
2022/01/06 08:35:39;;;;;;;12.60;5.70;;;;;;;5.55;92.96;98279.41;4836221;29;20671;-82
2022/01/06 08:38:07;;;;;;;11.53;5.60;;;;;;;5.58;92.14;98279.25;4854761;29;20645;-82
2022/01/06 08:40:36;;;;;;;8.03;5.40;;;;;;;5.60;92.13;98277.44;4867685;29;21303;-81
2022/01/06 08:43:06;;;;;;;10.03;4.70;;;;;;;5.64;92.32;98273.81;4851866;29;20642;-81
2022/01/06 08:45:34;;;;;;;8.40;5.93;;;;;;;5.66;91.70;98277.97;4853392;29;21016;-81
2022/01/06 08:48:02;;;;;;;9.13;5.63;;;;;;;5.69;91.67;98282.19;4851658;29;20655;-82
2022/01/06 08:50:30;;;;;;;11.70;5.50;;;;;;;5.71;91.14;98290.72;4854734;29;20744;-82
2022/01/06 08:52:58;;;;;;;11.50;6.73;;;;;;;5.74;91.62;98290.59;4852719;29;20732;-81
2022/01/06 08:55:27;;;;;;;13.63;5.60;;;;;;;5.78;91.65;98294.72;4834397;29;20664;-81
2022/01/06 08:57:57;;;;;;;13.37;6.37;;;;;;;5.78;91.69;98289.56;4867971;29;20654;-82
2022/01/06 09:00:27;;;;;;;12.73;5.90;;;;;;;5.83;91.37;98300.53;4852168;29;21069;-82
2022/01/06 09:02:55;;;;;;;9.07;6.40;;;;;;;5.90;91.33;98295.00;4853512;29;20625;-82
2022/01/06 09:05:28;;;;;;;11.03;6.27;;;;;;;5.91;91.14;98294.09;4851623;29;20685;-82
2022/01/06 09:07:57;;;;;;;13.40;5.93;;;;;;;5.94;91.47;98298.25;4834274;29;20657;-82
2022/01/06 09:10:28;;;;;;;10.87;5.80;;;;;;;5.98;91.63;98299.81;4865645;29;20661;-81
2022/01/06 09:13:16;;;;;;;13.13;6.60;;;;;;;6.01;91.42;98307.44;4850849;29;20665;-81
2022/01/06 09:15:49;;;;;;;12.50;6.40;;;;;;;6.03;91.62;98314.22;4864822;29;20645;-82
2022/01/06 09:18:17;;;;;;;11.10;6.23;;;;;;;6.02;91.55;98320.31;4853642;29;20658;-82
2022/01/06 09:20:45;;;;;;;10.10;6.03;;;;;;;6.00;90.84;98326.44;4856262;29;20687;-80
2022/01/06 09:23:13;;;;;;;13.47;7.17;;;;;;;5.93;90.89;98325.91;4841405;29;20649;-81
2022/01/06 09:25:41;;;;;;;18.03;9.17;;;;;;;5.92;91.43;98331.97;4841030;29;21237;-81
2022/01/06 09:28:11;;;;;;;15.30;6.70;;;;;;;5.94;91.60;98327.59;4856446;29;20643;-81
2022/01/06 09:30:40;;;;;;;15.67;6.77;;;;;;;5.96;91.18;98332.69;4869762;29;20633;-81
2022/01/06 09:33:09;;;;;;;9.93;6.77;;;;;;;5.98;90.75;98336.03;4851703;29;21192;-81
2022/01/06 09:35:37;;;;;;;13.30;7.30;;;;;;;5.98;90.60;98343.81;4854290;29;20650;-83
2022/01/06 09:38:06;;;;;;;15.23;7.23;;;;;;;5.98;90.86;98346.41;4854827;29;20643;-82
2022/01/06 09:40:40;;;;;;;13.93;6.47;;;;;;;5.95;91.03;98352.53;4857103;29;20731;-80
2022/01/06 09:43:11;;;;;;;12.30;6.70;;;;;;;6.00;90.84;98353.19;4847437;29;20737;-83
2022/01/06 09:45:41;;;;;;;13.10;6.23;;;;;;;6.07;91.46;98340.81;4853927;29;20648;-83
2022/01/06 09:48:12;;;;;;;10.13;6.63;;;;;;;6.10;91.14;98357.00;4864280;29;20745;-83
2022/01/06 09:50:42;;;;;;;12.70;7.20;;;;;;;6.11;91.25;98354.34;4855354;29;20645;-82
2022/01/06 09:53:11;;;;;;;14.90;6.77;;;;;;;6.12;89.60;98350.03;4849373;29;20649;-81
2022/01/06 09:55:40;;;;;;;11.50;7.10;;;;;;;6.10;90.23;98355.28;4865247;29;20664;-82
2022/01/06 09:58:09;;;;;;;11.10;7.50;;;;;;;6.11;90.01;98353.53;4836234;29;20651;-84
2022/01/06 10:00:37;;;;;;;16.63;8.30;;;;;;;6.11;90.39;98356.94;4837758;29;20665;-84
2022/01/06 10:03:08;;;;;;;11.33;7.50;;;;;;;6.13;90.05;98356.88;4853686;29;21239;-84
2022/01/06 10:05:42;;;;;;;16.50;7.30;;;;;;;6.16;90.06;98352.41;4834611;29;20669;-84
2022/01/06 10:08:12;;;;;;;13.90;7.60;;;;;;;6.24;90.47;98349.44;4854121;29;20643;-83
2022/01/06 10:10:41;;;;;;;14.40;6.83;;;;;;;6.27;90.09;98355.34;4857776;29;20727;-83
2022/01/06 10:13:16;;;;;;;11.30;6.43;;;;;;;6.32;90.52;98353.34;4831874;29;21205;-82
2022/01/06 10:15:46;;;;;;;16.13;7.30;;;;;;;6.33;89.64;98344.69;4851201;29;20643;-83
2022/01/06 10:18:16;;;;;;;18.10;8.13;;;;;;;6.34;89.90;98355.88;4854568;29;20633;-83
2022/01/06 10:20:48;;;;;;;17.70;8.13;;;;;;;6.37;89.76;98355.72;4855958;29;21227;-82
2022/01/06 10:23:17;;;;;;;13.30;7.60;;;;;;;6.40;90.07;98353.81;4839408;29;20644;-82
2022/01/06 10:25:49;;;;;;;10.57;7.20;;;;;;;6.38;89.50;98353.06;4864112;29;20631;-81
2022/01/06 10:28:24;;;;;;;13.90;6.40;;;;;;;6.34;89.75;98350.69;4855144;29;21221;-81
2022/01/06 10:30:52;;;;;;;17.23;9.43;;;;;;;6.35;89.84;98355.78;4851042;29;20648;-82
2022/01/06 10:33:22;;;;;;;12.20;8.37;;;;;;;6.44;90.01;98346.75;4854525;29;21239;-82
2022/01/06 10:35:51;;;;;;;14.43;8.23;;;;;;;6.55;88.84;98350.50;4852630;29;21034;-81
2022/01/06 10:38:26;;;;;;;11.70;6.70;;;;;;;6.65;89.14;98349.16;4849840;29;20645;-81
2022/01/06 10:40:55;;;;;;;15.60;8.43;;;;;;;6.73;89.09;98347.84;4866025;29;20667;-81
2022/01/06 10:43:34;;;;;;;14.57;6.13;;;;;;;6.84;88.53;98344.72;4849918;29;20657;-81
2022/01/06 10:46:02;;;;;;;8.63;6.20;;;;;;;6.92;87.95;98345.22;4851202;29;20643;-82
2022/01/06 10:48:31;;;;;;;10.53;6.13;;;;;;;7.00;88.69;98337.88;4848163;29;21269;-82
2022/01/06 10:51:01;;;;;;;10.63;6.07;;;;;;;7.12;86.75;98344.09;4847517;29;21229;-82
2022/01/06 10:53:30;;;;;;;11.10;6.27;;;;;;;7.10;88.01;98350.31;4848187;29;20644;-82
2022/01/06 10:55:58;;;;;;;15.37;6.37;;;;;;;6.99;86.79;98347.41;4847409;29;21036;-82
2022/01/06 10:58:27;;;;;;;11.13;5.40;;;;;;;6.90;87.31;98353.06;4866471;29;20648;-83
2022/01/06 11:00:57;;;;;;;11.60;5.40;;;;;;;6.82;86.81;98354.34;4850225;29;20656;-82
2022/01/06 11:03:28;;;;;;;10.43;5.17;;;;;;;6.66;86.49;98354.25;4852138;29;20656;-82
2022/01/06 11:06:00;;;;;;;13.83;9.50;;;;;;;6.65;86.53;98355.16;4854030;29;21236;-82
2022/01/06 11:08:31;;;;;;;17.03;7.30;;;;;;;6.62;87.18;98363.09;4829120;29;21059;-82
2022/01/06 11:11:15;;;;;;;10.97;5.10;;;;;;;6.61;86.67;98365.75;4850300;29;20642;-82
2022/01/06 11:13:44;;;;;;;11.33;6.20;;;;;;;6.66;87.16;98366.34;4856193;29;20647;-82
2022/01/06 11:16:15;;;;;;;14.40;5.53;;;;;;;6.67;87.23;98361.09;4865481;29;21198;-82
2022/01/06 11:18:49;;;;;;;12.70;5.40;;;;;;;6.67;86.26;98370.63;4853786;29;21250;-82
2022/01/06 11:21:22;;;;;;;14.50;5.60;;;;;;;6.68;87.21;98367.13;4867550;29;20677;-82
2022/01/06 11:24:01;;;;;;;15.33;8.33;;;;;;;6.73;87.45;98367.75;4850389;29;20639;-82
2022/01/06 11:26:29;;;;;;;22.47;8.73;;;;;;;6.77;87.75;98361.50;4851351;29;21248;-82
2022/01/06 11:28:59;;;;;;;17.47;8.00;;;;;;;6.79;87.14;98364.84;4835596;29;20634;-82
2022/01/06 11:31:29;;;;;;;16.37;7.63;;;;;;;6.82;86.59;98367.28;4850656;29;20728;-82
2022/01/06 11:33:57;;;;;;;12.20;6.83;;;;;;;6.88;87.08;98357.47;4851891;29;20636;-82
2022/01/06 11:36:29;;;;;;;9.13;4.83;;;;;;;7.00;87.12;98353.44;4853187;29;20628;-82
2022/01/06 11:38:58;;;;;;;6.63;4.00;;;;;;;7.13;85.28;98352.75;4852502;29;20721;-82
2022/01/06 11:41:32;;;;;;;6.83;3.53;;;;;;;7.15;84.19;98359.50;4857606;29;20664;-82
2022/01/06 11:44:02;;;;;;;14.13;4.50;;;;;;;7.12;84.93;98359.66;4849777;29;20726;-82
2022/01/06 11:46:41;;;;;;;13.70;4.60;;;;;;;7.10;83.62;98371.88;4869918;29;20644;-82
2022/01/06 11:49:10;;;;;;;6.70;3.50;;;;;;;7.12;83.25;98367.44;4831266;29;20793;-82
2022/01/06 11:51:39;;;;;;;9.73;3.40;;;;;;;7.19;83.35;98374.00;4852236;29;20646;-82
2022/01/06 11:54:16;;;;;;;7.03;2.63;;;;;;;7.25;82.48;98362.50;4844516;29;20639;-82
2022/01/06 11:56:46;;;;;;;9.57;3.83;;;;;;;7.27;83.07;98366.66;4849501;29;20660;-82